Time;durP1;ratioP1;P1;durP2;ratioP2;P2;SDS_P1;SDS_P2;PMS_P1;PMS_P2;Temp;Humidity;BMP_temperature;BMP_pressure;BME280_temperature;BME280_humidity;BME280_pressure;Samples;Min_cycle;Max_cycle;Signal;HPM_P1;HPM_P2
2023/10/09 00:03:06;;;;;;;17.35;9.20;;;15.10;99.90;;;;;;5053831;28;20201;-51
2023/10/09 00:08:22;;;;;;;15.73;8.95;;;15.10;99.90;;;;;;5053642;28;20173;-50
2023/10/09 00:10:57;;;;;;;15.80;8.63;;;15.10;99.90;;;;;;5053185;28;20546;-49
2023/10/09 00:13:32;;;;;;;15.23;8.70;;;15.20;99.90;;;;;;5053416;28;20261;-49
2023/10/09 00:16:08;;;;;;;16.67;8.38;;;15.20;99.90;;;;;;5053140;28;20158;-49
2023/10/09 00:18:34;;;;;;;20.48;9.57;;;15.10;99.90;;;;;;5053272;28;20296;-49
2023/10/09 00:21:10;;;;;;;17.48;8.70;;;15.10;99.90;;;;;;5052635;28;20155;-49
2023/10/09 00:23:36;;;;;;;14.65;9.27;;;15.20;99.90;;;;;;5053415;28;20527;-49
2023/10/09 00:26:08;;;;;;;21.13;9.85;;;15.20;99.90;;;;;;5053236;28;20223;-49
2023/10/09 00:28:41;;;;;;;17.95;8.93;;;15.20;99.90;;;;;;5053120;28;20219;-49
2023/10/09 00:31:07;;;;;;;13.02;8.80;;;15.20;99.90;;;;;;5053497;28;20171;-49
2023/10/09 00:33:34;;;;;;;14.38;9.10;;;15.20;99.90;;;;;;5052770;28;20681;-49
2023/10/09 00:36:19;;;;;;;15.45;8.77;;;15.20;99.90;;;;;;5052684;28;20582;-49
2023/10/09 00:38:51;;;;;;;18.75;8.18;;;15.10;99.90;;;;;;5052515;28;20578;-49
2023/10/09 00:41:24;;;;;;;14.27;7.82;;;;;;;;;;5052625;28;20159;-49
2023/10/09 00:43:51;;;;;;;12.40;8.20;;;15.20;99.90;;;;;;5052506;28;20650;-49
2023/10/09 00:48:58;;;;;;;11.98;7.97;;;15.20;99.90;;;;;;5052830;28;20229;-49
2023/10/09 00:51:24;;;;;;;15.38;7.50;;;15.20;99.90;;;;;;5052430;28;20166;-49
2023/10/09 00:53:58;;;;;;;14.45;7.57;;;15.20;99.90;;;;;;5052444;28;20178;-48
2023/10/09 00:59:08;;;;;;;10.88;6.78;;;15.10;99.90;;;;;;5052451;28;20560;-49
2023/10/09 01:01:35;;;;;;;8.75;6.80;;;15.20;99.90;;;;;;5052229;28;20212;-48
2023/10/09 01:04:11;;;;;;;10.82;7.13;;;15.20;99.90;;;;;;5052211;28;20682;-49
2023/10/09 01:06:43;;;;;;;13.75;6.43;;;15.20;99.90;;;;;;5052725;28;20223;-49
2023/10/09 01:09:20;;;;;;;9.55;6.40;;;15.20;99.90;;;;;;5052462;28;20259;-49
2023/10/09 01:11:51;;;;;;;10.70;6.50;;;15.40;99.90;;;;;;5052361;28;20174;-49
2023/10/09 01:14:16;;;;;;;10.07;6.25;;;15.40;99.90;;;;;;5052208;28;20228;-49
2023/10/09 01:16:43;;;;;;;13.38;7.00;;;15.30;99.90;;;;;;5052191;28;20170;-47
2023/10/09 01:19:24;;;;;;;10.88;6.38;;;15.30;99.90;;;;;;5052342;28;20203;-47
2023/10/09 01:21:54;;;;;;;10.68;6.30;;;15.20;99.90;;;;;;5034032;28;20180;-47
2023/10/09 01:24:22;;;;;;;18.83;6.97;;;15.20;99.90;;;;;;5051871;28;20211;-47
2023/10/09 01:26:49;;;;;;;10.15;6.30;;;15.20;99.90;;;;;;5051750;28;20162;-47
2023/10/09 01:29:19;;;;;;;9.70;6.90;;;15.20;99.90;;;;;;5051823;28;20174;-49
2023/10/09 01:34:19;;;;;;;10.77;6.80;;;15.10;99.90;;;;;;5051967;28;20216;-50
2023/10/09 01:36:48;;;;;;;13.18;6.40;;;15.10;99.90;;;;;;5051890;28;20202;-50
2023/10/09 01:39:23;;;;;;;12.77;7.07;;;15.10;99.90;;;;;;5051807;28;20301;-50
2023/10/09 01:41:59;;;;;;;9.18;6.15;;;14.10;99.90;;;;;;5051606;28;20173;-50
2023/10/09 01:44:34;;;;;;;25.00;7.28;;;15.10;99.90;;;;;;5051574;28;20158;-50
2023/10/09 01:47:07;;;;;;;9.27;6.78;;;15.10;99.90;;;;;;5051368;28;20261;-49
2023/10/09 01:49:41;;;;;;;14.63;6.70;;;15.10;99.90;;;;;;5051513;28;20162;-50
2023/10/09 01:52:16;;;;;;;13.23;7.57;;;15.10;99.90;;;;;;5051823;28;20201;-49
2023/10/09 01:54:49;;;;;;;10.50;7.10;;;15.20;99.90;;;;;;5051675;28;20192;-49
2023/10/09 01:57:22;;;;;;;15.75;7.25;;;15.10;99.90;;;;;;5051358;28;20241;-49
2023/10/09 01:59:49;;;;;;;13.27;7.20;;;15.10;99.90;;;;;;5033553;28;20635;-49
2023/10/09 02:02:25;;;;;;;13.32;6.63;;;15.20;99.90;;;;;;5051180;28;20610;-49
2023/10/09 02:05:24;;;;;;;9.85;6.45;;;15.00;99.90;;;;;;5051567;28;20210;-48
2023/10/09 02:07:53;;;;;;;13.73;7.15;;;15.10;99.90;;;;;;5051567;28;20186;-49
2023/10/09 02:12:58;;;;;;;8.15;6.43;;;15.10;99.90;;;;;;5051500;28;20182;-48
2023/10/09 02:15:45;;;;;;;13.35;7.05;;;15.10;99.90;;;;;;5051207;28;20189;-49
2023/10/09 02:21:01;;;;;;;13.40;6.63;;;15.10;99.90;;;;;;5051409;28;20227;-49
2023/10/09 02:27:06;;;;;;;10.82;6.45;;;15.20;99.90;;;;;;4970484;28;20369;-48
2023/10/09 02:29:35;;;;;;;11.45;6.80;;;15.00;99.90;;;;;;4970457;28;20169;-49
2023/10/09 02:32:13;;;;;;;9.63;6.45;;;15.10;99.90;;;;;;5028540;28;20183;-49
2023/10/09 02:34:39;;;;;;;9.35;6.05;;;15.20;99.90;;;;;;5051107;28;20228;-52
2023/10/09 02:37:06;;;;;;;10.80;5.85;;;15.20;99.90;;;;;;5051484;28;20162;-49
2023/10/09 02:39:43;;;;;;;9.73;6.22;;;15.30;99.90;;;;;;5050949;28;20697;-47
2023/10/09 02:44:40;;;;;;;9.98;6.55;;;15.20;99.90;;;;;;5054244;28;20537;-49
2023/10/09 02:47:11;;;;;;;9.57;5.95;;;15.20;99.90;;;;;;5055174;28;20214;-49
2023/10/09 02:49:40;;;;;;;10.18;6.90;;;15.20;99.90;;;;;;5037331;28;20316;-49
2023/10/09 02:52:07;;;;;;;10.65;6.55;;;15.30;99.90;;;;;;5055361;28;20252;-49
2023/10/09 02:54:41;;;;;;;10.40;5.80;;;15.20;99.90;;;;;;5036733;28;20256;-50
2023/10/09 02:57:07;;;;;;;11.30;7.18;;;15.30;99.90;;;;;;5055262;28;20174;-49
2023/10/09 02:59:34;;;;;;;11.45;6.55;;;15.30;99.90;;;;;;5054788;28;20211;-49
2023/10/09 03:02:00;;;;;;;10.20;6.18;;;15.40;99.90;;;;;;5054493;28;20659;-49
2023/10/09 03:04:31;;;;;;;9.00;5.93;;;15.50;99.90;;;;;;5054559;28;20198;-49
2023/10/09 03:06:58;;;;;;;9.07;5.95;;;15.50;99.90;;;;;;5054388;28;20250;-49
2023/10/09 03:09:27;;;;;;;8.45;6.53;;;15.50;99.90;;;;;;5054344;28;20701;-49
2023/10/09 03:12:05;;;;;;;9.98;6.75;;;15.60;99.90;;;;;;5036502;28;20170;-49
2023/10/09 03:14:41;;;;;;;10.63;6.57;;;15.60;99.90;;;;;;5054300;28;20166;-49
2023/10/09 03:17:11;;;;;;;11.77;6.75;;;15.70;99.90;;;;;;5054914;28;20174;-49
2023/10/09 03:19:39;;;;;;;9.50;6.47;;;15.60;99.90;;;;;;5054524;28;20214;-49
2023/10/09 03:22:10;;;;;;;12.65;7.07;;;15.60;99.90;;;;;;5054665;28;20213;-49
2023/10/09 03:24:36;;;;;;;9.63;7.10;;;15.70;99.90;;;;;;5054512;28;20175;-49
2023/10/09 03:27:02;;;;;;;12.20;7.13;;;15.80;99.90;;;;;;5054042;28;20167;-49
2023/10/09 03:29:28;;;;;;;12.75;6.82;;;15.70;99.90;;;;;;5036150;28;20177;-49
2023/10/09 03:31:55;;;;;;;13.85;7.65;;;15.70;99.90;;;;;;5053978;28;20544;-50
2023/10/09 03:34:21;;;;;;;13.73;6.82;;;15.70;99.90;;;;;;5036109;28;20170;-49
2023/10/09 03:36:51;;;;;;;10.98;6.30;;;15.70;99.90;;;;;;5053888;28;20517;-49
2023/10/09 03:39:59;;;;;;;10.10;6.82;;;15.80;99.90;;;;;;5053792;28;20734;-48
2023/10/09 03:42:05;;;;;;;12.60;6.20;;;15.70;99.90;;;;;;5043646;28;20225;-49
2023/10/09 03:44:35;;;;;;;7.95;5.72;;;15.70;99.90;;;;;;5053775;28;20186;-49
2023/10/09 03:47:01;;;;;;;10.75;6.38;;;15.70;99.90;;;;;;5053516;28;20225;-47
2023/10/09 03:49:29;;;;;;;10.40;7.10;;;15.80;99.90;;;;;;5053624;28;20688;-50
2023/10/09 03:51:55;;;;;;;11.90;7.05;;;15.80;99.90;;;;;;5053595;28;20216;-49
2023/10/09 03:54:22;;;;;;;13.63;6.28;;;15.80;99.90;;;;;;5053808;28;20167;-50
2023/10/09 03:56:51;;;;;;;13.52;6.28;;;15.80;99.90;;;;;;5052880;28;20159;-49
2023/10/09 03:59:21;;;;;;;11.20;6.85;;;15.80;99.90;;;;;;5053647;28;20264;-49
2023/10/09 04:01:48;;;;;;;10.60;6.10;;;15.90;99.90;;;;;;5053467;28;20159;-49
2023/10/09 04:04:14;;;;;;;9.77;6.78;;;15.90;99.90;;;;;;5053446;28;20167;-46
2023/10/09 04:06:40;;;;;;;11.90;6.47;;;15.90;99.90;;;;;;5035749;28;20170;-50
2023/10/09 04:09:27;;;;;;;10.68;7.20;;;15.90;99.90;;;;;;5053725;28;20174;-49
2023/10/09 04:12:12;;;;;;;9.25;6.55;;;16.00;99.90;;;;;;5053515;28;20247;-49
2023/10/09 04:22:49;;;;;;;10.93;6.60;;;15.90;99.90;;;;;;5053095;28;20197;-49
2023/10/09 04:25:15;;;;;;;9.82;6.72;;;16.00;99.90;;;;;;5053008;28;20223;-49
2023/10/09 04:27:41;;;;;;;13.80;6.65;;;15.90;99.90;;;;;;5052845;28;20183;-49
2023/10/09 04:30:07;;;;;;;11.90;6.15;;;15.90;99.90;;;;;;5035539;28;20167;-50
2023/10/09 04:32:34;;;;;;;9.18;6.15;;;15.90;99.90;;;;;;5052779;28;20219;-49
2023/10/09 04:37:52;;;;;;;9.85;6.93;;;15.90;99.90;;;;;;5052733;28;20202;-49
2023/10/09 04:43:06;;;;;;;10.13;5.68;;;15.90;99.90;;;;;;5052696;28;20173;-50
2023/10/09 04:48:10;;;;;;;12.75;7.60;;;15.80;99.90;;;;;;5052875;28;20235;-50
2023/10/09 04:50:45;;;;;;;18.20;12.50;;;15.80;99.90;;;;;;5035099;28;20171;-48
2023/10/09 04:55:53;;;;;;;14.20;8.90;;;15.70;99.90;;;;;;5052424;28;20639;-49
2023/10/09 04:58:26;;;;;;;14.05;7.22;;;15.70;99.90;;;;;;5052272;28;20580;-48
2023/10/09 05:08:49;;;;;;;11.02;6.93;;;15.60;99.90;;;;;;5051643;28;20174;-48
2023/10/09 05:11:34;;;;;;;16.17;8.68;;;15.60;99.90;;;;;;5052066;28;20166;-47
2023/10/09 05:14:12;;;;;;;17.45;7.68;;;15.60;99.90;;;;;;5052206;28;20215;-48
2023/10/09 05:16:53;;;;;;;15.32;7.68;;;15.60;99.90;;;;;;5052697;28;20180;-48
2023/10/09 05:19:41;;;;;;;15.13;6.57;;;16.70;99.90;;;;;;5051816;28;20214;-51
2023/10/09 05:22:29;;;;;;;10.48;6.97;;;15.60;99.90;;;;;;5052308;28;20170;-48
2023/10/09 05:24:56;;;;;;;11.85;6.30;;;15.60;99.90;;;;;;5051791;28;20178;-50
2023/10/09 05:30:24;;;;;;;12.73;7.30;;;15.80;99.90;;;;;;5052076;28;20217;-48
2023/10/09 05:32:54;;;;;;;11.73;7.03;;;15.80;99.90;;;;;;5051690;28;20177;-48
2023/10/09 05:35:29;;;;;;;11.27;7.18;;;15.90;99.90;;;;;;5051897;28;20210;-50
2023/10/09 05:38:01;;;;;;;10.40;6.10;;;15.80;99.90;;;;;;5051804;28;20266;-48
2023/10/09 05:40:31;;;;;;;15.13;6.97;;;15.80;99.90;;;;;;5051869;28;20182;-48
2023/10/09 05:43:02;;;;;;;10.13;7.07;;;15.90;99.90;;;;;;5051832;28;20224;-51
2023/10/09 05:48:48;;;;;;;11.95;6.50;;;15.90;99.90;;;;;;5051803;28;20188;-51
2023/10/09 06:04:53;;;;;;;11.65;7.45;;;16.20;99.90;;;;;;5051505;28;20196;-48
2023/10/09 06:07:24;;;;;;;11.63;7.32;;;16.10;99.90;;;;;;5051335;28;20178;-49
2023/10/09 06:09:52;;;;;;;12.80;6.35;;;16.20;99.90;;;;;;5033403;28;20219;-49
2023/10/09 06:12:33;;;;;;;11.38;6.10;;;;;;;;;;5051482;28;20270;-48
2023/10/09 06:15:18;;;;;;;12.75;7.47;;;16.10;99.90;;;;;;5051395;28;20166;-49
2023/10/09 06:17:50;;;;;;;12.20;6.60;;;16.10;99.90;;;;;;5051098;28;20163;-50
2023/10/09 06:23:15;;;;;;;14.32;7.53;;;16.10;99.90;;;;;;5055266;28;20169;-51
2023/10/09 06:25:51;;;;;;;10.73;6.82;;;16.10;99.90;;;;;;5055109;28;20637;-51
2023/10/09 06:28:18;;;;;;;12.07;5.93;;;16.10;99.90;;;;;;5055132;28;20705;-51
2023/10/09 06:30:47;;;;;;;19.77;7.25;;;16.10;99.90;;;;;;5055344;28;20209;-51
2023/10/09 06:33:19;;;;;;;10.30;5.85;;;16.10;99.90;;;;;;5055317;28;20253;-49
2023/10/09 06:35:53;;;;;;;14.25;7.07;;;16.20;99.90;;;;;;5055081;28;20166;-48
2023/10/09 06:38:23;;;;;;;10.90;7.25;;;16.20;99.90;;;;;;5054902;28;20205;-50
2023/10/09 06:43:36;;;;;;;11.20;7.30;;;16.20;99.90;;;;;;5055189;28;20178;-49
2023/10/09 06:49:28;;;;;;;12.30;7.07;;;16.30;99.90;;;;;;4974352;28;20281;-48
2023/10/09 06:51:55;;;;;;;11.23;6.88;;;16.30;99.90;;;;;;4973792;28;20212;-50
2023/10/09 06:54:25;;;;;;;12.35;7.22;;;16.30;99.90;;;;;;5024428;28;20673;-49
2023/10/09 06:59:24;;;;;;;12.27;6.13;;;16.30;99.90;;;;;;5054646;28;20217;-48
2023/10/09 07:07:01;;;;;;;11.90;6.55;;;;;;;;;;5054791;28;20163;-51
2023/10/09 07:09:42;;;;;;;11.43;7.05;;;16.40;99.90;;;;;;5054755;28;20542;-49
2023/10/09 07:12:20;;;;;;;15.10;7.75;;;16.50;99.90;;;;;;5054781;28;20167;-49
2023/10/09 07:20:08;;;;;;;11.10;6.50;;;16.60;99.90;;;;;;5054592;28;20660;-49
2023/10/09 07:22:39;;;;;;;12.38;7.95;;;16.70;99.90;;;;;;5054766;28;20185;-48
2023/10/09 07:25:32;;;;;;;13.98;7.38;;;16.80;99.90;;;;;;5037791;28;20181;-49
2023/10/09 07:27:59;;;;;;;11.90;7.13;;;16.80;99.90;;;;;;5054278;28;20182;-51
2023/10/09 07:38:14;;;;;;;11.55;6.95;;;17.00;99.90;;;;;;5054131;28;20827;-50
2023/10/09 07:40:59;;;;;;;13.90;7.15;;;16.90;99.90;;;;;;5053964;28;20633;-52
2023/10/09 07:43:39;;;;;;;13.13;7.47;;;16.90;99.90;;;;;;5053877;28;20242;-50
2023/10/09 07:48:57;;;;;;;14.75;7.32;;;17.00;99.90;;;;;;5053983;28;20213;-49
2023/10/09 07:51:30;;;;;;;10.63;7.38;;;17.00;99.90;;;;;;5053702;28;20240;-47
2023/10/09 07:53:57;;;;;;;12.88;8.30;;;17.00;99.90;;;;;;5053793;28;20174;-49
2023/10/09 07:56:30;;;;;;;11.93;7.28;;;17.00;99.90;;;;;;5053575;28;20163;-47
2023/10/09 07:59:00;;;;;;;12.95;7.25;;;17.00;99.90;;;;;;5035543;28;20213;-48
2023/10/09 08:01:35;;;;;;;17.83;7.75;;;17.00;99.90;;;;;;5053410;28;20159;-48
2023/10/09 08:04:10;;;;;;;12.27;7.57;;;17.10;99.90;;;;;;5053383;28;20166;-48
2023/10/09 08:06:39;;;;;;;16.48;8.00;;;17.10;99.90;;;;;;5053747;28;20170;-51
2023/10/09 08:12:13;;;;;;;13.10;7.53;;;17.10;99.90;;;;;;5053284;28;20636;-49
2023/10/09 08:14:48;;;;;;;11.55;7.15;;;17.10;99.90;;;;;;5053322;28;20175;-48
2023/10/09 08:17:20;;;;;;;13.77;8.70;;;17.20;99.90;;;;;;5053234;28;20170;-48
2023/10/09 08:19:53;;;;;;;13.20;7.80;;;17.20;99.90;;;;;;5036270;28;20226;-48
2023/10/09 08:24:58;;;;;;;11.30;7.53;;;17.30;99.90;;;;;;5053339;28;20170;-49
2023/10/09 08:32:43;;;;;;;13.32;7.03;;;17.40;99.90;;;;;;5052917;28;20495;-51
2023/10/09 08:35:29;;;;;;;13.23;8.40;;;17.40;99.90;;;;;;5052853;28;20166;-50
2023/10/09 08:37:58;;;;;;;12.90;8.27;;;17.50;99.90;;;;;;5052690;28;20595;-49
2023/10/09 08:40:41;;;;;;;17.52;11.48;;;17.60;99.90;;;;;;5052707;28;20213;-52
2023/10/09 08:43:20;;;;;;;13.60;8.10;;;17.70;99.90;;;;;;5052866;28;20775;-49
2023/10/09 08:45:53;;;;;;;13.70;7.85;;;17.80;99.90;;;;;;5052477;28;20183;-51
2023/10/09 08:48:21;;;;;;;13.32;7.65;;;17.80;99.90;;;;;;5052567;28;20210;-51
2023/10/09 08:50:53;;;;;;;16.63;7.90;;;17.90;99.90;;;;;;5052560;28;20243;-51
2023/10/09 08:53:20;;;;;;;15.50;7.10;;;18.00;99.90;;;;;;5052780;28;20553;-51
2023/10/09 08:55:46;;;;;;;15.20;6.88;;;18.00;99.90;;;;;;5052504;28;20162;-52
2023/10/09 08:58:36;;;;;;;12.55;6.45;;;18.00;99.90;;;;;;5052297;28;20198;-48
2023/10/09 09:01:02;;;;;;;13.93;7.90;;;18.10;99.90;;;;;;5052655;28;20193;-52
2023/10/09 09:03:39;;;;;;;13.63;7.35;;;18.10;99.90;;;;;;5052292;28;20650;-52
2023/10/09 09:06:05;;;;;;;12.38;7.45;;;18.00;99.90;;;;;;5035184;28;20185;-51
2023/10/09 09:08:36;;;;;;;11.23;7.43;;;18.10;99.90;;;;;;5052477;28;20563;-48
2023/10/09 09:11:22;;;;;;;10.55;6.63;;;18.10;99.90;;;;;;5052143;28;20645;-51
2023/10/09 09:14:04;;;;;;;15.13;8.63;;;18.10;99.90;;;;;;5052110;28;20261;-48
2023/10/09 09:16:31;;;;;;;14.30;8.18;;;18.20;99.90;;;;;;5035125;28;20162;-51
2023/10/09 09:21:40;;;;;;;18.17;8.82;;;18.40;99.90;;;;;;5035491;28;20174;-52
2023/10/09 09:27:18;;;;;;;13.85;6.18;;;18.70;99.90;;;;;;5051787;28;20162;-47
2023/10/09 09:29:52;;;;;;;18.88;8.02;;;18.70;99.90;;;;;;5051321;28;20163;-52
2023/10/09 09:32:29;;;;;;;12.27;7.15;;;18.70;99.90;;;;;;5051326;28;20573;-48
2023/10/09 09:35:01;;;;;;;13.15;6.78;;;18.70;99.90;;;;;;5051493;28;20269;-51
2023/10/09 09:37:33;;;;;;;13.60;7.45;;;18.80;99.90;;;;;;5051358;28;20163;-50
2023/10/09 09:40:00;;;;;;;12.25;7.40;;;18.80;99.90;;;;;;5051423;28;20190;-47
2023/10/09 09:42:27;;;;;;;10.65;6.75;;;19.00;99.90;;;;;;5051311;28;20583;-50
2023/10/09 09:44:55;;;;;;;14.13;7.30;;;19.00;99.90;;;;;;5051372;28;20159;-50
2023/10/09 09:47:27;;;;;;;13.80;6.82;;;19.20;99.90;;;;;;5051172;28;20276;-51
2023/10/09 09:50:11;;;;;;;14.50;6.72;;;19.30;99.90;;;;;;5051182;28;20187;-51
2023/10/09 09:52:38;;;;;;;12.80;6.57;;;;;;;;;;5050425;28;20166;-47
2023/10/09 09:55:05;;;;;;;10.50;6.15;;;19.30;99.90;;;;;;5051095;28;20166;-51
2023/10/09 09:57:32;;;;;;;9.50;5.68;;;19.50;99.90;;;;;;5051131;28;20166;-51
2023/10/09 10:00:02;;;;;;;10.73;5.85;;;19.80;99.90;;;;;;5051105;28;20210;-51
2023/10/09 10:02:33;;;;;;;9.20;5.93;;;20.00;99.90;;;;;;5051099;28;20170;-50
2023/10/09 10:05:05;;;;;;;8.02;5.28;;;20.10;99.90;;;;;;5050979;28;20198;-51
2023/10/09 10:07:43;;;;;;;10.27;5.68;;;20.20;99.90;;;;;;5051043;28;20221;-51
2023/10/09 10:10:38;;;;;;;8.93;5.55;;;20.30;99.90;;;;;;5050961;28;20189;-51
2023/10/09 10:13:05;;;;;;;10.10;5.45;;;20.30;99.90;;;;;;5051407;28;20241;-50
2023/10/09 10:15:56;;;;;;;10.85;6.03;;;20.40;99.90;;;;;;5050840;28;20645;-50
2023/10/09 10:18:23;;;;;;;8.50;5.68;;;20.50;99.90;;;;;;5051117;28;20214;-50
2023/10/09 10:21:38;;;;;;;11.70;5.15;;;20.50;99.90;;;;;;5050912;28;20175;-50
2023/10/09 10:24:05;;;;;;;10.07;4.78;;;20.70;99.90;;;;;;5050398;28;20183;-50
2023/10/09 10:26:33;;;;;;;8.65;4.90;;;20.70;99.90;;;;;;5051088;28;20206;-50
2023/10/09 10:29:22;;;;;;;9.20;5.47;;;20.60;99.90;;;;;;5050814;28;20642;-50
2023/10/09 10:32:06;;;;;;;9.07;4.93;;;20.60;99.90;;;;;;5051095;28;20182;-51
2023/10/09 10:34:55;;;;;;;9.88;4.82;;;20.70;99.90;;;;;;5050978;28;20634;-50
2023/10/09 10:37:33;;;;;;;8.35;4.93;;;20.80;99.90;;;;;;5051030;28;20171;-51
2023/10/09 10:40:13;;;;;;;11.23;5.25;;;;;;;;;;5050108;28;20548;-50
2023/10/09 10:43:09;;;;;;;8.60;4.78;;;20.80;99.90;;;;;;5050704;28;20253;-50
2023/10/09 10:45:43;;;;;;;10.23;5.05;;;20.80;99.90;;;;;;5050813;28;20684;-49
2023/10/09 10:48:22;;;;;;;7.75;4.63;;;20.70;99.90;;;;;;5050900;28;20261;-50
2023/10/09 10:50:57;;;;;;;9.35;4.80;;;20.70;99.90;;;;;;5050212;28;20646;-50
2023/10/09 10:53:27;;;;;;;10.25;4.60;;;20.70;99.90;;;;;;5032656;28;20587;-50
2023/10/09 10:55:57;;;;;;;9.38;4.90;;;20.70;99.90;;;;;;5049743;28;20653;-50
2023/10/09 10:58:23;;;;;;;8.52;5.15;;;20.90;99.90;;;;;;5049465;28;20584;-50
2023/10/09 11:06:17;;;;;;;9.18;5.43;;;21.00;99.90;;;;;;5054334;28;20196;-50
2023/10/09 11:09:08;;;;;;;9.63;4.72;;;21.10;99.90;;;;;;5036304;28;20175;-50
2023/10/09 11:11:41;;;;;;;8.57;4.80;;;21.10;99.90;;;;;;5054880;28;20202;-50
2023/10/09 11:14:14;;;;;;;7.25;4.40;;;21.10;99.90;;;;;;5054829;28;20171;-50
2023/10/09 11:16:47;;;;;;;7.38;4.47;;;21.20;99.90;;;;;;5054011;28;20514;-50
2023/10/09 11:19:28;;;;;;;12.93;5.40;;;21.20;99.90;;;;;;5053627;28;20678;-50
2023/10/09 11:22:24;;;;;;;9.38;5.20;;;21.20;99.90;;;;;;5053874;28;20166;-49
2023/10/09 11:24:59;;;;;;;8.65;4.75;;;21.20;99.90;;;;;;5053210;28;20167;-50
2023/10/09 11:27:29;;;;;;;11.07;4.93;;;21.20;99.90;;;;;;5053577;28;20687;-50
2023/10/09 11:29:54;;;;;;;10.48;5.43;;;21.30;99.90;;;;;;5053815;28;20171;-50
2023/10/09 11:32:25;;;;;;;10.27;5.55;;;21.40;99.90;;;;;;5053756;28;20205;-50
2023/10/09 11:35:11;;;;;;;13.73;5.57;;;21.50;99.90;;;;;;5053745;28;20178;-50
2023/10/09 11:37:42;;;;;;;7.78;5.40;;;21.40;99.90;;;;;;5054024;28;20232;-50
2023/10/09 11:40:33;;;;;;;11.20;4.78;;;21.40;99.90;;;;;;5053691;28;20189;-49
2023/10/09 11:43:03;;;;;;;10.95;5.10;;;21.40;99.90;;;;;;5053513;28;20174;-49
2023/10/09 11:45:29;;;;;;;16.20;6.28;;;21.40;99.90;;;;;;5053873;28;20225;-49
2023/10/09 11:47:57;;;;;;;10.45;5.63;;;21.40;99.90;;;;;;5053026;28;20214;-51
2023/10/09 11:50:55;;;;;;;11.38;5.43;;;21.30;99.90;;;;;;5053093;28;20236;-50
2023/10/09 11:55:50;;;;;;;11.75;5.85;;;21.20;99.90;;;;;;5053683;28;20170;-50
2023/10/09 11:58:22;;;;;;;14.93;6.35;;;21.30;99.90;;;;;;5035400;28;20207;-49
2023/10/09 12:01:04;;;;;;;13.18;6.18;;;21.30;99.90;;;;;;5053342;28;20167;-50
2023/10/09 12:03:31;;;;;;;11.85;6.00;;;21.30;99.90;;;;;;5053251;28;20167;-50
2023/10/09 12:05:57;;;;;;;13.43;6.05;;;;;;;;;;5035595;28;20170;-50
2023/10/09 12:08:26;;;;;;;9.52;5.72;;;21.40;99.90;;;;;;5052470;28;20637;-50
2023/10/09 12:10:54;;;;;;;13.27;6.20;;;21.30;99.90;;;;;;5035239;28;20262;-51
2023/10/09 12:13:22;;;;;;;12.68;6.72;;;21.30;99.90;;;;;;5053287;28;20265;-51
2023/10/09 12:15:48;;;;;;;10.60;5.32;;;21.30;99.90;;;;;;5052547;28;20167;-50
2023/10/09 12:18:18;;;;;;;12.40;5.82;;;21.30;99.90;;;;;;5052833;28;20267;-50
2023/10/09 12:20:50;;;;;;;11.93;5.93;;;21.40;99.90;;;;;;5053242;28;20198;-50
2023/10/09 12:23:20;;;;;;;13.13;6.82;;;21.40;99.90;;;;;;5052559;28;20212;-50
2023/10/09 12:25:47;;;;;;;14.60;6.65;;;21.50;99.90;;;;;;5052184;28;20536;-50
2023/10/09 12:28:13;;;;;;;10.43;6.50;;;21.40;99.90;;;;;;5052746;28;20246;-50
2023/10/09 12:30:41;;;;;;;14.75;6.05;;;21.50;99.90;;;;;;5052735;28;20171;-50
2023/10/09 12:33:07;;;;;;;9.68;6.70;;;21.50;99.90;;;;;;5053261;28;20175;-48
2023/10/09 12:35:37;;;;;;;10.40;6.90;;;21.40;99.90;;;;;;5053002;28;20170;-50
2023/10/09 12:38:03;;;;;;;9.10;5.68;;;21.40;99.90;;;;;;5052910;28;20194;-48
2023/10/09 12:40:30;;;;;;;10.95;6.20;;;21.40;99.90;;;;;;5052763;28;20170;-49
2023/10/09 12:42:58;;;;;;;9.70;6.05;;;21.30;99.90;;;;;;5052696;28;20166;-48
2023/10/09 12:45:32;;;;;;;11.25;6.72;;;21.30;99.90;;;;;;5052692;28;20167;-48
2023/10/09 12:48:09;;;;;;;11.35;6.38;;;21.30;99.90;;;;;;5052024;28;20306;-49
2023/10/09 12:50:41;;;;;;;16.42;6.55;;;21.30;99.90;;;;;;5052934;28;20623;-48
2023/10/09 12:53:07;;;;;;;10.15;6.18;;;;;;;;;;5052471;28;20224;-48
2023/10/09 12:55:40;;;;;;;16.52;6.47;;;21.20;99.90;;;;;;5034961;28;20269;-48
2023/10/09 12:58:07;;;;;;;13.68;6.22;;;21.20;99.90;;;;;;5052857;28;20198;-48
2023/10/09 13:00:39;;;;;;;14.32;6.30;;;21.10;99.90;;;;;;5052752;28;20170;-48
2023/10/09 13:03:16;;;;;;;10.82;6.07;;;21.20;99.90;;;;;;5052554;28;20640;-48
2023/10/09 13:05:52;;;;;;;11.32;5.50;;;21.10;99.90;;;;;;5052169;28;20165;-48
2023/10/09 13:08:31;;;;;;;10.02;5.03;;;21.10;99.90;;;;;;5051977;28;20205;-48
2023/10/09 13:11:04;;;;;;;8.85;5.55;;;21.10;99.90;;;;;;5052166;28;20174;-48
2023/10/09 13:13:43;;;;;;;10.85;6.43;;;21.20;99.90;;;;;;5052414;28;20163;-48
2023/10/09 13:16:23;;;;;;;10.35;5.72;;;21.20;99.90;;;;;;5052190;28;20247;-49
2023/10/09 13:18:53;;;;;;;13.55;5.45;;;21.20;99.90;;;;;;5051947;28;20209;-48
2023/10/09 13:21:20;;;;;;;10.38;5.38;;;21.20;99.90;;;;;;5051997;28;20195;-48
2023/10/09 13:23:49;;;;;;;11.73;5.35;;;21.30;99.90;;;;;;5051984;28;20166;-51
2023/10/09 13:26:21;;;;;;;12.45;5.88;;;21.30;99.90;;;;;;5051987;28;20170;-50
2023/10/09 13:28:51;;;;;;;11.35;5.70;;;21.20;99.90;;;;;;5051236;28;20212;-50
2023/10/09 13:31:18;;;;;;;8.98;5.13;;;21.20;99.90;;;;;;5052135;28;20167;-51
2023/10/09 13:33:44;;;;;;;8.77;5.75;;;21.30;99.90;;;;;;5051799;28;20163;-51
2023/10/09 13:39:24;;;;;;;11.02;5.70;;;21.20;99.90;;;;;;5034706;28;20221;-51
2023/10/09 13:41:59;;;;;;;10.88;5.20;;;21.20;99.90;;;;;;5051889;28;20174;-50
2023/10/09 13:44:26;;;;;;;13.38;5.82;;;;;;;;;;5051607;28;20167;-49
2023/10/09 13:46:56;;;;;;;9.13;5.47;;;21.10;99.90;;;;;;5051531;28;20628;-50
2023/10/09 13:49:29;;;;;;;11.13;5.90;;;21.00;99.90;;;;;;5051573;28;20194;-51
2023/10/09 13:51:56;;;;;;;9.32;5.65;;;21.00;99.90;;;;;;5051796;28;20182;-50
2023/10/09 13:54:39;;;;;;;9.05;5.40;;;21.00;99.90;;;;;;5051671;28;20518;-49
2023/10/09 13:57:06;;;;;;;11.52;6.10;;;21.10;99.90;;;;;;5052182;28;20224;-49
2023/10/09 13:59:35;;;;;;;8.95;6.05;;;21.20;99.90;;;;;;5052002;28;20210;-50
2023/10/09 14:02:02;;;;;;;10.63;6.05;;;21.20;99.90;;;;;;5051625;28;20175;-50
2023/10/09 14:04:28;;;;;;;13.77;6.38;;;21.20;99.90;;;;;;5051586;28;20204;-50
2023/10/09 14:06:56;;;;;;;11.90;6.05;;;21.30;99.90;;;;;;5051262;28;20178;-51
2023/10/09 14:09:37;;;;;;;9.95;5.47;;;21.30;99.90;;;;;;5051510;28;20179;-50
2023/10/09 14:12:09;;;;;;;8.65;5.47;;;21.30;99.90;;;;;;5051915;28;20253;-51
2023/10/09 14:14:47;;;;;;;10.52;5.82;;;21.30;99.90;;;;;;5051878;28;20576;-51
2023/10/09 14:17:25;;;;;;;13.82;6.45;;;21.30;99.90;;;;;;5051430;28;20233;-51
2023/10/09 14:19:52;;;;;;;9.60;6.53;;;21.20;99.90;;;;;;5051355;28;20215;-50
2023/10/09 14:22:19;;;;;;;10.65;6.32;;;21.20;99.90;;;;;;5051185;28;20163;-51
2023/10/09 14:24:46;;;;;;;11.45;5.95;;;21.30;99.90;;;;;;5051128;28;20205;-51
2023/10/09 14:27:17;;;;;;;13.55;7.43;;;21.20;99.90;;;;;;5051152;28;20190;-50
2023/10/09 14:29:48;;;;;;;10.98;6.57;;;21.20;99.90;;;;;;5051089;28;20162;-51
2023/10/09 14:32:14;;;;;;;10.80;5.57;;;21.10;99.90;;;;;;5051053;28;20166;-51
2023/10/09 14:34:49;;;;;;;9.68;6.28;;;21.10;99.90;;;;;;5051087;28;20254;-51
2023/10/09 14:37:16;;;;;;;9.95;7.18;;;;;;;;;;5050958;28;20709;-51
2023/10/09 14:39:42;;;;;;;11.40;6.10;;;21.00;99.90;;;;;;5052205;28;20575;-51
2023/10/09 14:42:10;;;;;;;15.55;6.80;;;21.10;99.90;;;;;;5055044;28;20189;-50
2023/10/09 14:44:40;;;;;;;14.35;6.45;;;21.10;99.90;;;;;;5054933;28;20175;-49
2023/10/09 14:47:06;;;;;;;11.32;6.45;;;21.20;99.90;;;;;;5055244;28;20233;-51
2023/10/09 14:49:38;;;;;;;10.45;6.68;;;21.20;99.90;;;;;;5055525;28;20171;-51
2023/10/09 14:52:08;;;;;;;14.23;6.57;;;21.20;99.90;;;;;;5055480;28;20201;-51
2023/10/09 14:54:34;;;;;;;14.43;6.38;;;21.10;99.90;;;;;;5055147;28;20167;-51
2023/10/09 14:57:00;;;;;;;13.43;7.15;;;21.00;99.90;;;;;;5054722;28;20162;-51
2023/10/09 14:59:25;;;;;;;15.10;7.30;;;20.80;99.90;;;;;;5054716;28;21289;-51
2023/10/09 15:01:53;;;;;;;11.80;6.75;;;20.70;99.90;;;;;;5054866;28;20652;-51
2023/10/09 15:04:19;;;;;;;10.60;6.47;;;20.70;99.90;;;;;;5054875;28;20175;-51
2023/10/09 15:06:49;;;;;;;13.15;6.47;;;20.50;99.90;;;;;;5054548;28;20269;-51
2023/10/09 15:09:22;;;;;;;14.43;6.95;;;20.40;99.90;;;;;;5054465;28;20232;-50
2023/10/09 15:11:48;;;;;;;14.15;7.88;;;20.30;99.90;;;;;;5054468;28;20700;-51
2023/10/09 15:14:18;;;;;;;16.20;7.85;;;20.20;99.90;;;;;;5054393;28;20297;-50
2023/10/09 15:16:45;;;;;;;13.05;7.03;;;20.20;99.90;;;;;;5054325;28;20650;-50